Time;durP1;ratioP1;P1;durP2;ratioP2;P2;SDS_P1;SDS_P2;PMS_P1;PMS_P2;Temp;Humidity;BMP_temperature;BMP_pressure;BME280_temperature;BME280_humidity;BME280_pressure;Samples;Min_cycle;Max_cycle;Signal;HPM_P1;HPM_P2
2021/12/26 00:01:30;;;;;;;59.55;33.58;;;9.90;99.90;;;;;;4956487;29;20035;-75
2021/12/26 00:03:56;;;;;;;57.92;33.67;;;9.90;99.90;;;;;;4955584;29;20024;-73
2021/12/26 00:06:26;;;;;;;41.83;23.75;;;9.90;99.90;;;;;;4955482;28;20548;-73
2021/12/26 00:08:54;;;;;;;32.15;20.92;;;9.90;99.90;;;;;;4955682;29;20031;-71
2021/12/26 00:11:20;;;;;;;46.65;24.88;;;9.90;99.90;;;;;;4956107;29;20059;-74
2021/12/26 00:13:46;;;;;;;42.92;24.38;;;9.90;99.90;;;;;;4938428;29;20385;-77
2021/12/26 00:16:13;;;;;;;33.53;19.25;;;9.90;99.90;;;;;;4955313;28;20035;-74
2021/12/26 00:18:46;;;;;;;34.00;20.95;;;9.90;99.90;;;;;;4955982;28;20054;-78
2021/12/26 00:21:18;;;;;;;33.92;20.88;;;9.90;99.90;;;;;;4955469;29;20027;-78
2021/12/26 00:23:45;;;;;;;36.83;22.77;;;9.90;99.90;;;;;;4955687;29;20051;-78
2021/12/26 00:26:11;;;;;;;32.63;21.55;;;9.90;99.90;;;;;;4955847;29;20118;-78
2021/12/26 00:28:37;;;;;;;33.60;21.27;;;9.80;99.90;;;;;;4955268;29;20035;-79
2021/12/26 00:31:04;;;;;;;37.00;22.27;;;9.70;99.90;;;;;;4954650;28;20043;-78
2021/12/26 00:33:31;;;;;;;32.42;21.48;;;9.60;99.90;;;;;;4954402;29;20058;-72
2021/12/26 00:35:58;;;;;;;32.45;21.65;;;9.60;99.90;;;;;;4938169;29;20529;-78
2021/12/26 00:38:24;;;;;;;32.53;20.05;;;9.50;99.90;;;;;;4954357;29;20098;-78
2021/12/26 00:40:50;;;;;;;27.23;19.10;;;9.50;99.90;;;;;;4953890;29;20494;-77
2021/12/26 00:43:16;;;;;;;26.45;18.98;;;9.50;99.90;;;;;;4953931;29;20030;-78
2021/12/26 00:45:43;;;;;;;27.83;18.25;;;9.40;99.90;;;;;;4937708;29;20062;-78
2021/12/26 00:48:09;;;;;;;25.67;16.30;;;9.50;99.90;;;;;;4954539;28;20050;-79
2021/12/26 00:50:37;;;;;;;28.73;18.65;;;9.50;99.90;;;;;;4955236;29;20430;-70
2021/12/26 00:53:04;;;;;;;25.42;17.63;;;9.50;99.90;;;;;;4954996;29;20027;-78
2021/12/26 00:55:30;;;;;;;28.60;18.02;;;9.50;99.90;;;;;;4937903;29;20035;-71
2021/12/26 00:57:56;;;;;;;35.55;20.75;;;9.50;99.90;;;;;;4954571;29;20024;-78
2021/12/26 01:00:28;;;;;;;29.98;19.17;;;9.50;99.90;;;;;;4955027;29;20027;-79
2021/12/26 01:02:55;;;;;;;33.87;19.77;;;9.40;99.90;;;;;;4937744;29;20050;-79
2021/12/26 01:05:23;;;;;;;32.30;19.85;;;9.40;99.90;;;;;;4954990;29;20079;-72
2021/12/26 01:07:58;;;;;;;29.48;19.80;;;9.40;99.90;;;;;;4953850;28;20043;-79
2021/12/26 01:10:29;;;;;;;29.65;19.30;;;9.40;99.90;;;;;;4937308;29;20078;-79
2021/12/26 01:12:55;;;;;;;35.58;22.02;;;9.40;99.90;;;;;;4953056;29;20466;-73
2021/12/26 01:15:24;;;;;;;39.05;26.33;;;9.40;99.90;;;;;;4953668;29;20031;-78
2021/12/26 01:17:58;;;;;;;34.97;23.73;;;9.40;99.90;;;;;;4937905;29;20086;-76
2021/12/26 01:20:42;;;;;;;44.28;26.42;;;9.40;99.90;;;;;;4937585;29;20142;-78
2021/12/26 01:23:10;;;;;;;43.70;26.33;;;9.40;99.90;;;;;;4953519;29;20034;-78
2021/12/26 01:25:37;;;;;;;32.60;22.08;;;9.40;99.90;;;;;;4937533;29;20027;-76
2021/12/26 01:28:04;;;;;;;34.40;22.42;;;9.40;99.90;;;;;;4937662;29;20538;-71
2021/12/26 01:30:32;;;;;;;32.53;21.40;;;9.40;99.90;;;;;;4952687;29;20126;-77
2021/12/26 01:32:59;;;;;;;29.92;20.02;;;9.40;99.90;;;;;;4953106;29;20051;-78
2021/12/26 01:35:55;;;;;;;30.80;18.92;;;9.40;99.90;;;;;;4971483;28;20596;-77
2021/12/26 01:38:34;;;;;;;33.10;20.88;;;9.40;99.90;;;;;;4971466;28;20715;-78
2021/12/26 01:41:26;;;;;;;33.42;19.67;;;9.40;99.90;;;;;;4970145;28;20496;-79
2021/12/26 01:44:13;;;;;;;26.80;16.75;;;9.40;99.90;;;;;;4971545;28;20595;-78
2021/12/26 01:46:49;;;;;;;24.83;16.77;;;9.40;99.90;;;;;;4954913;28;20122;-77
2021/12/26 01:49:23;;;;;;;25.93;16.67;;;9.40;99.90;;;;;;4954661;28;20030;-76
2021/12/26 01:51:52;;;;;;;29.67;18.52;;;9.40;99.90;;;;;;4971179;28;20034;-70
2021/12/26 01:54:30;;;;;;;30.17;19.10;;;9.40;99.90;;;;;;4971266;28;20489;-71
2021/12/26 01:56:56;;;;;;;26.35;16.20;;;9.30;99.90;;;;;;4971404;28;20035;-78
2021/12/26 01:59:26;;;;;;;32.03;18.65;;;9.30;99.90;;;;;;4954790;28;20081;-76
2021/12/26 02:01:59;;;;;;;28.88;17.33;;;9.30;99.90;;;;;;4970238;28;20043;-79
2021/12/26 02:04:29;;;;;;;28.80;17.30;;;9.30;99.90;;;;;;4955339;28;20027;-78
2021/12/26 02:07:01;;;;;;;32.20;17.75;;;9.40;99.90;;;;;;4954805;28;20049;-78
2021/12/26 02:09:27;;;;;;;27.48;16.58;;;9.40;99.90;;;;;;4970704;28;20054;-77
2021/12/26 02:11:56;;;;;;;29.05;18.13;;;9.30;99.90;;;;;;4948627;29;20042;-75
2021/12/26 02:14:24;;;;;;;32.10;17.17;;;9.40;99.90;;;;;;4952725;29;20609;-79
2021/12/26 02:17:10;;;;;;;25.33;15.23;;;9.30;99.90;;;;;;4913591;29;20475;-77
2021/12/26 02:19:41;;;;;;;28.10;15.43;;;9.40;99.90;;;;;;4897974;29;20485;-78
2021/12/26 02:22:12;;;;;;;22.85;13.73;;;9.30;99.90;;;;;;4913227;29;20063;-78
2021/12/26 02:27:31;;;;;;;23.75;13.80;;;9.30;99.90;;;;;;4913617;29;20065;-78
2021/12/26 02:30:04;;;;;;;25.83;14.65;;;9.30;99.90;;;;;;4892046;29;20036;-79
2021/12/26 02:32:31;;;;;;;23.45;12.95;;;9.30;99.90;;;;;;4894696;29;20028;-80
2021/12/26 02:34:59;;;;;;;24.23;13.38;;;9.30;99.90;;;;;;4903761;29;20088;-76
2021/12/26 02:37:26;;;;;;;22.73;13.45;;;9.30;99.90;;;;;;4913676;29;20060;-79
2021/12/26 02:39:52;;;;;;;21.05;13.07;;;9.30;99.90;;;;;;4914632;29;20043;-79
2021/12/26 02:42:20;;;;;;;23.58;13.40;;;9.30;99.90;;;;;;4916963;29;20036;-75
2021/12/26 02:44:47;;;;;;;22.33;12.32;;;9.30;99.90;;;;;;4917241;29;20043;-72
2021/12/26 02:47:14;;;;;;;19.85;11.18;;;9.30;99.90;;;;;;4916818;29;20044;-78
2021/12/26 02:49:40;;;;;;;21.08;12.05;;;9.30;99.90;;;;;;4900941;29;20056;-78
2021/12/26 02:52:07;;;;;;;20.23;11.60;;;9.30;99.90;;;;;;4916837;29;20430;-78
2021/12/26 02:54:34;;;;;;;16.52;10.00;;;9.30;99.90;;;;;;4929012;29;20486;-75
2021/12/26 02:57:00;;;;;;;21.85;12.60;;;9.30;99.90;;;;;;4936581;29;20533;-79
2021/12/26 02:59:31;;;;;;;19.27;11.18;;;9.30;99.90;;;;;;4936814;29;20041;-78
2021/12/26 03:01:58;;;;;;;18.05;10.05;;;9.30;99.90;;;;;;4937105;29;20035;-79
2021/12/26 03:04:24;;;;;;;20.70;11.63;;;9.30;99.90;;;;;;4940017;29;20466;-78
2021/12/26 03:07:01;;;;;;;19.73;10.30;;;9.30;99.90;;;;;;4955632;29;20079;-71
2021/12/26 03:09:35;;;;;;;19.85;10.95;;;9.30;99.90;;;;;;4939376;29;20066;-75
2021/12/26 03:12:01;;;;;;;19.27;10.52;;;9.30;99.90;;;;;;4955971;29;20102;-78
2021/12/26 03:14:27;;;;;;;18.65;9.80;;;9.30;99.90;;;;;;4955420;29;20382;-78
2021/12/26 03:16:53;;;;;;;18.73;9.45;;;9.30;99.90;;;;;;4955665;29;20126;-77
2021/12/26 03:19:20;;;;;;;18.40;9.73;;;9.30;99.90;;;;;;4955591;28;20039;-72
2021/12/26 03:21:50;;;;;;;21.15;10.35;;;9.40;99.90;;;;;;4956760;29;20482;-78
2021/12/26 03:24:16;;;;;;;20.02;9.57;;;9.40;99.90;;;;;;4955087;29;20039;-70
2021/12/26 03:26:43;;;;;;;18.90;10.63;;;9.40;99.90;;;;;;4955627;29;20106;-78
2021/12/26 03:29:09;;;;;;;23.83;13.20;;;9.40;99.90;;;;;;4955325;29;20082;-74
2021/12/26 03:31:35;;;;;;;22.80;12.25;;;9.50;99.90;;;;;;4939529;29;20027;-78
2021/12/26 03:34:03;;;;;;;17.48;10.50;;;9.50;99.90;;;;;;4956642;29;20023;-76
2021/12/26 03:36:29;;;;;;;18.08;10.10;;;9.50;99.90;;;;;;4938921;29;20037;-74
2021/12/26 03:38:55;;;;;;;24.17;12.43;;;9.50;99.90;;;;;;4939173;29;20027;-72
2021/12/26 03:41:29;;;;;;;24.65;12.32;;;9.50;99.90;;;;;;4955052;29;20059;-79
2021/12/26 03:43:58;;;;;;;24.75;13.02;;;9.50;99.90;;;;;;4954808;29;20533;-71
2021/12/26 03:46:24;;;;;;;20.98;12.27;;;9.50;99.90;;;;;;4956076;29;20023;-78
2021/12/26 03:48:50;;;;;;;20.92;10.80;;;9.50;99.90;;;;;;4955357;29;20027;-76
2021/12/26 03:51:19;;;;;;;18.38;10.32;;;9.50;99.90;;;;;;4953776;28;20039;-79
2021/12/26 03:53:46;;;;;;;24.10;11.68;;;9.50;99.90;;;;;;4938905;29;20031;-76
2021/12/26 03:56:13;;;;;;;19.98;11.27;;;9.60;99.90;;;;;;4955826;29;20114;-77
2021/12/26 03:58:53;;;;;;;19.00;11.23;;;9.50;99.90;;;;;;4954506;29;20027;-71
2021/12/26 04:01:19;;;;;;;20.23;10.77;;;9.60;99.90;;;;;;4954957;29;20121;-79
2021/12/26 04:03:45;;;;;;;20.27;10.35;;;9.60;99.90;;;;;;4955083;29;20114;-78
2021/12/26 04:06:12;;;;;;;17.45;11.40;;;9.60;99.90;;;;;;4938309;29;20051;-73
2021/12/26 04:08:44;;;;;;;;;;;9.60;99.90;;;;;;4955351;29;20032;-71
2021/12/26 04:11:10;;;;;;;20.00;9.40;;;9.70;99.90;;;;;;4954396;28;19965;-78
2021/12/26 04:13:36;;;;;;;18.38;11.50;;;9.60;99.90;;;;;;4954611;28;20035;-71
2021/12/26 04:16:03;;;;;;;25.75;15.75;;;9.60;99.90;;;;;;4938822;29;20046;-72
2021/12/26 04:18:30;;;;;;;23.42;14.40;;;9.60;99.90;;;;;;4938274;29;20382;-71
2021/12/26 04:20:56;;;;;;;19.15;11.48;;;9.70;99.90;;;;;;4954145;29;20039;-74
2021/12/26 04:23:26;;;;;;;20.55;11.82;;;9.60;99.90;;;;;;4938343;29;20103;-78
2021/12/26 04:25:52;;;;;;;20.80;10.07;;;9.60;99.90;;;;;;4938369;28;20039;-75
2021/12/26 04:28:19;;;;;;;18.75;9.38;;;9.60;99.90;;;;;;4954419;29;20027;-78
2021/12/26 04:30:46;;;;;;;16.33;8.60;;;9.60;99.90;;;;;;4954023;29;20051;-77
2021/12/26 04:33:13;;;;;;;16.35;8.45;;;9.50;99.90;;;;;;4954963;29;20030;-72
2021/12/26 04:35:40;;;;;;;17.35;9.05;;;9.60;99.90;;;;;;4953700;29;20031;-71
2021/12/26 04:38:06;;;;;;;19.30;9.45;;;9.60;99.90;;;;;;4953623;29;20139;-77
2021/12/26 04:40:32;;;;;;;16.27;8.82;;;9.60;99.90;;;;;;4954240;28;20078;-77
2021/12/26 04:43:17;;;;;;;17.90;9.40;;;9.50;99.90;;;;;;4955395;29;20039;-75
2021/12/26 04:45:53;;;;;;;19.63;10.50;;;9.60;99.90;;;;;;4954068;29;20034;-75
2021/12/26 04:48:42;;;;;;;14.75;8.82;;;9.60;99.90;;;;;;4955201;29;20039;-77
2021/12/26 04:51:11;;;;;;;18.90;10.23;;;9.60;99.90;;;;;;4954564;29;20047;-72
2021/12/26 04:53:39;;;;;;;23.77;14.60;;;9.50;99.90;;;;;;4953882;29;20485;-78
2021/12/26 04:56:06;;;;;;;20.65;12.55;;;9.50;99.90;;;;;;4937519;29;20035;-75
2021/12/26 04:58:32;;;;;;;23.75;13.25;;;9.50;99.90;;;;;;4953901;29;20023;-78
2021/12/26 05:00:58;;;;;;;35.95;21.23;;;9.40;99.90;;;;;;4954768;29;20039;-77
2021/12/26 05:03:25;;;;;;;26.85;15.68;;;9.50;99.90;;;;;;4954333;28;20382;-78
2021/12/26 05:05:51;;;;;;;25.10;14.00;;;9.50;99.90;;;;;;4954604;28;20383;-77
2021/12/26 05:08:17;;;;;;;22.75;14.10;;;9.50;99.90;;;;;;4937428;29;20047;-74
2021/12/26 05:10:43;;;;;;;22.40;11.30;;;9.50;99.90;;;;;;4953062;29;20035;-70
2021/12/26 05:13:09;;;;;;;21.92;13.10;;;9.50;99.90;;;;;;4937365;29;20034;-75
2021/12/26 05:15:36;;;;;;;29.10;14.15;;;9.50;99.90;;;;;;4952917;29;20039;-74
2021/12/26 05:18:04;;;;;;;21.33;13.63;;;9.60;99.90;;;;;;4953058;29;20070;-75
2021/12/26 05:20:32;;;;;;;22.35;13.38;;;9.50;99.90;;;;;;4953382;29;20038;-70
2021/12/26 05:22:59;;;;;;;25.98;16.23;;;9.50;99.90;;;;;;4937465;29;20082;-71
2021/12/26 05:25:26;;;;;;;27.52;16.90;;;9.50;99.90;;;;;;4953066;29;20028;-71
2021/12/26 05:27:53;;;;;;;31.08;20.52;;;9.40;99.90;;;;;;4953172;29;20091;-71
2021/12/26 05:30:22;;;;;;;43.00;28.23;;;9.40;99.90;;;;;;4952953;29;20035;-78
2021/12/26 05:32:56;;;;;;;34.33;22.52;;;9.40;99.90;;;;;;4952737;29;20031;-76
2021/12/26 05:35:22;;;;;;;28.63;19.80;;;9.20;99.90;;;;;;4951927;29;20050;-71
2021/12/26 05:37:49;;;;;;;22.27;13.77;;;9.20;99.90;;;;;;4936057;29;20024;-72
2021/12/26 05:40:16;;;;;;;25.40;15.90;;;9.20;99.90;;;;;;4936106;29;20078;-78
2021/12/26 05:42:43;;;;;;;26.80;18.45;;;9.20;99.90;;;;;;4953278;29;20020;-78
2021/12/26 05:45:11;;;;;;;30.52;21.40;;;9.10;99.90;;;;;;4952596;29;20035;-74
2021/12/26 05:47:48;;;;;;;24.15;16.50;;;9.20;99.90;;;;;;4953023;29;20493;-73
2021/12/26 05:50:18;;;;;;;23.63;14.98;;;9.20;99.90;;;;;;4953089;29;20067;-77
2021/12/26 05:52:46;;;;;;;26.33;20.30;;;9.10;99.90;;;;;;4953284;29;20027;-71
2021/12/26 05:55:17;;;;;;;19.80;14.35;;;9.10;99.90;;;;;;4936838;29;20058;-77
2021/12/26 05:57:46;;;;;;;25.70;14.10;;;9.20;99.90;;;;;;4952098;29;20028;-71
2021/12/26 06:00:15;;;;;;;21.55;15.55;;;9.20;99.90;;;;;;4936510;29;20478;-74
2021/12/26 06:02:44;;;;;;;27.50;18.13;;;9.20;99.90;;;;;;4953573;29;20385;-77
2021/12/26 06:05:11;;;;;;;32.78;20.77;;;9.20;99.90;;;;;;4952229;29;20039;-71
2021/12/26 06:07:38;;;;;;;51.00;32.67;;;9.10;99.90;;;;;;4951532;29;20031;-73
2021/12/26 06:10:05;;;;;;;36.97;21.63;;;9.10;99.90;;;;;;4935998;29;20036;-77
2021/12/26 06:12:33;;;;;;;32.63;20.58;;;9.10;99.90;;;;;;4952357;29;20027;-73
2021/12/26 06:14:59;;;;;;;31.70;19.95;;;9.10;99.90;;;;;;4954744;28;20034;-74
2021/12/26 06:17:29;;;;;;;32.65;20.30;;;9.10;99.90;;;;;;4956509;29;20533;-78
2021/12/26 06:20:14;;;;;;;29.92;18.25;;;9.10;99.90;;;;;;4957772;29;20054;-78
2021/12/26 06:22:46;;;;;;;24.92;15.10;;;9.10;99.90;;;;;;4939156;29;20066;-76
2021/12/26 06:25:38;;;;;;;31.00;19.00;;;9.10;99.90;;;;;;4961406;28;20206;-74
2021/12/26 06:28:18;;;;;;;20.10;12.00;;;9.00;99.90;;;;;;4954865;29;20042;-76
2021/12/26 06:31:05;;;;;;;17.98;9.90;;;9.00;99.90;;;;;;4955394;29;20110;-74
2021/12/26 06:33:50;;;;;;;16.13;9.35;;;8.90;99.90;;;;;;4957097;29;20142;-70
2021/12/26 06:36:35;;;;;;;21.05;13.23;;;8.90;99.90;;;;;;4957187;29;20098;-72
2021/12/26 06:39:07;;;;;;;19.58;12.98;;;8.80;99.90;;;;;;4957672;29;20035;-76
2021/12/26 06:41:51;;;;;;;17.75;10.40;;;8.90;99.90;;;;;;4957704;29;20041;-72
2021/12/26 06:44:36;;;;;;;17.27;9.90;;;8.80;99.90;;;;;;4943918;29;20078;-74
2021/12/26 06:47:11;;;;;;;16.38;10.50;;;8.80;99.90;;;;;;4956724;28;20446;-78
2021/12/26 06:49:42;;;;;;;18.70;10.50;;;8.80;99.90;;;;;;4957540;29;20091;-74
2021/12/26 06:52:08;;;;;;;18.85;11.70;;;8.90;99.90;;;;;;4938830;29;20389;-71
2021/12/26 06:54:36;;;;;;;17.95;10.32;;;8.90;99.90;;;;;;4956852;29;20363;-70
2021/12/26 06:57:03;;;;;;;26.55;14.20;;;9.00;99.90;;;;;;4956960;28;20036;-76
2021/12/26 06:59:30;;;;;;;24.60;16.08;;;8.90;99.90;;;;;;4957429;29;20020;-78
2021/12/26 07:01:56;;;;;;;24.85;14.55;;;8.90;99.90;;;;;;4939780;29;20027;-76
2021/12/26 07:04:30;;;;;;;23.75;14.27;;;8.90;99.90;;;;;;4956948;29;20024;-76
2021/12/26 07:06:57;;;;;;;25.00;13.95;;;8.90;99.90;;;;;;4955389;28;20047;-76
2021/12/26 07:09:27;;;;;;;24.98;14.13;;;8.90;99.90;;;;;;4939648;29;20548;-76
2021/12/26 07:11:53;;;;;;;29.90;15.68;;;8.90;99.90;;;;;;4955678;28;20039;-75
2021/12/26 07:14:30;;;;;;;20.27;12.98;;;9.00;99.90;;;;;;4939657;29;20533;-77
2021/12/26 07:16:56;;;;;;;22.80;11.98;;;8.90;99.90;;;;;;4955840;29;20031;-77
2021/12/26 07:19:24;;;;;;;18.63;11.70;;;8.90;99.90;;;;;;4939435;29;20031;-73
2021/12/26 07:21:50;;;;;;;18.08;10.40;;;8.50;99.90;;;;;;4939507;29;20390;-70
2021/12/26 07:24:16;;;;;;;17.77;10.60;;;8.00;99.90;;;;;;4956833;29;20031;-79
2021/12/26 07:26:42;;;;;;;20.85;10.43;;;7.90;99.90;;;;;;4938699;29;20486;-77
2021/12/26 07:29:28;;;;;;;17.40;11.00;;;7.70;99.90;;;;;;4956243;29;20042;-70
2021/12/26 07:31:54;;;;;;;16.95;11.20;;;7.60;99.90;;;;;;4955278;29;20031;-79
2021/12/26 07:34:21;;;;;;;17.48;10.25;;;7.40;99.90;;;;;;4939698;29;20032;-75
2021/12/26 07:36:47;;;;;;;16.80;9.82;;;7.40;99.90;;;;;;4956407;29;20041;-73
2021/12/26 07:39:21;;;;;;;18.60;11.50;;;7.40;99.90;;;;;;4939026;29;20027;-77
2021/12/26 07:41:48;;;;;;;18.75;11.30;;;7.30;99.90;;;;;;4955835;29;20042;-77
2021/12/26 07:44:33;;;;;;;16.67;9.48;;;7.10;99.90;;;;;;4955979;29;20175;-76
2021/12/26 07:47:34;;;;;;;19.40;11.35;;;7.00;99.90;;;;;;4945255;29;20046;-77
2021/12/26 07:50:03;;;;;;;16.70;10.00;;;7.00;99.90;;;;;;4955942;29;20130;-79
2021/12/26 07:52:49;;;;;;;16.38;9.15;;;6.90;99.90;;;;;;4955788;29;20037;-78
2021/12/26 07:55:33;;;;;;;16.42;9.80;;;6.80;99.90;;;;;;4956349;29;20573;-78
2021/12/26 07:58:18;;;;;;;15.68;9.18;;;6.60;99.90;;;;;;4956006;29;20126;-72
2021/12/26 08:01:03;;;;;;;15.15;8.20;;;6.60;99.90;;;;;;4955740;29;20384;-74
2021/12/26 08:03:49;;;;;;;14.68;9.32;;;6.40;99.90;;;;;;4949256;29;20509;-77
2021/12/26 08:06:39;;;;;;;14.98;9.55;;;6.30;99.90;;;;;;4933692;29;20059;-75
2021/12/26 08:09:07;;;;;;;15.20;9.02;;;6.30;99.90;;;;;;4924728;29;20936;-79
2021/12/26 08:11:34;;;;;;;15.13;9.35;;;6.20;99.90;;;;;;4916782;29;20388;-77
2021/12/26 08:14:00;;;;;;;15.27;8.57;;;6.10;99.90;;;;;;4931269;29;20411;-77
2021/12/26 08:16:26;;;;;;;15.55;9.48;;;6.10;99.90;;;;;;4934006;29;20394;-70
2021/12/26 08:18:54;;;;;;;16.67;10.07;;;6.10;99.90;;;;;;4933935;29;20043;-78
2021/12/26 08:21:20;;;;;;;21.55;11.73;;;6.20;99.90;;;;;;4932309;29;20110;-76
2021/12/26 08:23:46;;;;;;;21.17;12.48;;;6.30;99.90;;;;;;4940620;28;20115;-73
2021/12/26 08:26:12;;;;;;;19.50;11.48;;;6.30;99.90;;;;;;4952356;29;20034;-76
2021/12/26 08:28:38;;;;;;;22.27;12.55;;;6.20;99.90;;;;;;4952921;29;20035;-73
2021/12/26 08:31:05;;;;;;;24.67;15.00;;;6.20;99.90;;;;;;4936674;29;20047;-70
2021/12/26 08:33:31;;;;;;;22.95;13.95;;;6.10;99.90;;;;;;4947221;29;20055;-71
2021/12/26 08:35:58;;;;;;;19.13;12.40;;;6.00;99.90;;;;;;4933541;29;20035;-69
2021/12/26 08:38:24;;;;;;;18.25;12.10;;;5.90;99.90;;;;;;4932671;29;20089;-72
2021/12/26 08:40:53;;;;;;;18.90;12.45;;;5.70;99.90;;;;;;4917698;29;20091;-70
2021/12/26 08:43:19;;;;;;;22.60;13.32;;;5.80;99.90;;;;;;4935763;29;20042;-75
2021/12/26 08:45:47;;;;;;;23.75;13.27;;;5.80;99.90;;;;;;4918582;29;20027;-74
2021/12/26 08:48:13;;;;;;;22.00;14.43;;;5.80;99.90;;;;;;4933786;29;20082;-71
2021/12/26 08:50:39;;;;;;;24.42;15.80;;;5.80;99.90;;;;;;4932572;29;20071;-74
2021/12/26 08:53:06;;;;;;;25.77;16.05;;;5.80;99.90;;;;;;4933916;29;20038;-69
2021/12/26 08:55:32;;;;;;;25.58;15.57;;;5.70;99.90;;;;;;4934795;29;20031;-76
2021/12/26 08:57:59;;;;;;;20.17;12.35;;;5.80;99.90;;;;;;4934001;29;20039;-71
2021/12/26 09:00:25;;;;;;;19.27;12.20;;;5.60;99.90;;;;;;4918457;29;20031;-73
2021/12/26 09:02:51;;;;;;;19.10;10.90;;;5.50;99.90;;;;;;4934484;29;20032;-77
2021/12/26 09:05:18;;;;;;;15.63;9.93;;;5.40;99.90;;;;;;4935190;29;20040;-73
2021/12/26 09:07:44;;;;;;;16.13;10.02;;;5.40;99.90;;;;;;4933362;29;20084;-78
2021/12/26 09:10:12;;;;;;;17.08;11.55;;;5.20;99.90;;;;;;4935019;29;20447;-68
2021/12/26 09:12:39;;;;;;;22.77;13.00;;;5.20;99.90;;;;;;4935213;29;20475;-68
2021/12/26 09:15:07;;;;;;;21.15;14.00;;;5.10;99.90;;;;;;4934809;29;20128;-68
2021/12/26 09:17:33;;;;;;;23.92;14.90;;;5.10;99.90;;;;;;4933653;29;20039;-69
2021/12/26 09:19:59;;;;;;;26.25;15.65;;;5.10;99.90;;;;;;4934517;29;20128;-78
2021/12/26 09:22:25;;;;;;;26.10;15.77;;;5.30;99.90;;;;;;4935696;29;20056;-70
2021/12/26 09:24:51;;;;;;;26.33;17.27;;;5.20;99.90;;;;;;4934766;29;20036;-74
2021/12/26 09:27:18;;;;;;;24.23;16.58;;;5.30;99.90;;;;;;4933857;29;20024;-72
2021/12/26 09:29:45;;;;;;;26.13;16.60;;;5.40;99.90;;;;;;4934368;29;20036;-71
2021/12/26 09:32:11;;;;;;;21.38;14.63;;;5.50;99.90;;;;;;4933281;29;20030;-78
2021/12/26 09:34:38;;;;;;;25.00;15.60;;;5.40;99.90;;;;;;4932777;29;20486;-78
2021/12/26 09:37:07;;;;;;;24.70;14.38;;;5.40;99.90;;;;;;4933953;29;20027;-71
2021/12/26 09:39:33;;;;;;;26.77;15.68;;;5.30;99.90;;;;;;4933859;29;20486;-72
2021/12/26 09:41:58;;;;;;;21.83;13.68;;;5.30;99.90;;;;;;4933047;29;20028;-78
2021/12/26 09:44:25;;;;;;;24.95;13.98;;;5.30;99.90;;;;;;4933731;29;20038;-73
2021/12/26 09:46:50;;;;;;;23.70;13.10;;;5.30;99.90;;;;;;4932403;29;20024;-77
2021/12/26 09:49:17;;;;;;;26.17;15.40;;;5.20;99.90;;;;;;4932397;29;20107;-79
2021/12/26 09:51:43;;;;;;;27.10;16.50;;;5.10;99.90;;;;;;4934179;29;20569;-78
2021/12/26 09:54:11;;;;;;;27.92;15.90;;;5.20;99.90;;;;;;4934441;29;20079;-78
2021/12/26 09:56:38;;;;;;;24.27;14.98;;;5.20;99.90;;;;;;4934856;29;20028;-72
2021/12/26 09:59:08;;;;;;;31.00;18.90;;;5.20;99.90;;;;;;4934432;29;20020;-73
2021/12/26 10:01:44;;;;;;;27.27;13.85;;;5.20;99.90;;;;;;4933940;29;20095;-78
2021/12/26 10:04:26;;;;;;;22.48;13.13;;;5.20;99.90;;;;;;4934626;29;20078;-78
2021/12/26 10:06:57;;;;;;;26.33;14.65;;;5.20;99.90;;;;;;4933344;29;20274;-74
2021/12/26 10:09:23;;;;;;;21.65;13.02;;;5.20;99.90;;;;;;4932854;29;20122;-78
2021/12/26 10:11:53;;;;;;;21.10;12.00;;;5.10;99.90;;;;;;4933381;29;20115;-73
2021/12/26 10:14:29;;;;;;;26.55;14.98;;;5.20;99.90;;;;;;4934884;29;20031;-78
2021/12/26 10:16:58;;;;;;;28.52;18.38;;;5.20;99.90;;;;;;4934821;29;20119;-79
2021/12/26 10:19:24;;;;;;;24.88;15.98;;;5.20;99.90;;;;;;4935427;29;20430;-78
2021/12/26 10:21:54;;;;;;;27.63;17.92;;;5.20;99.90;;;;;;4933710;29;20035;-78
2021/12/26 10:24:23;;;;;;;27.55;18.40;;;5.20;99.90;;;;;;4933282;29;20039;-79
2021/12/26 10:26:53;;;;;;;25.40;17.30;;;5.20;99.90;;;;;;4933814;29;20452;-77
2021/12/26 10:29:28;;;;;;;32.35;20.00;;;5.20;99.90;;;;;;4934735;29;20038;-72
2021/12/26 10:32:15;;;;;;;32.60;21.25;;;5.20;99.90;;;;;;4934432;29;20478;-74
2021/12/26 10:34:42;;;;;;;27.02;17.92;;;5.20;99.90;;;;;;4934518;29;20035;-77
2021/12/26 10:37:18;;;;;;;26.55;17.00;;;5.20;99.90;;;;;;4917026;29;20032;-78
2021/12/26 10:39:52;;;;;;;29.60;17.70;;;5.20;99.90;;;;;;4933790;29;20075;-79
2021/12/26 10:42:30;;;;;;;29.67;17.88;;;5.20;99.90;;;;;;4933966;29;20036;-78
2021/12/26 10:45:00;;;;;;;26.92;17.17;;;5.30;99.90;;;;;;4934848;29;20035;-78
2021/12/26 10:47:28;;;;;;;28.88;18.00;;;5.30;99.90;;;;;;4934800;29;20031;-79
2021/12/26 10:49:57;;;;;;;28.17;18.55;;;5.20;99.90;;;;;;4934936;29;20040;-75
2021/12/26 10:52:32;;;;;;;26.70;16.42;;;5.30;99.90;;;;;;4934875;29;20385;-79
2021/12/26 10:55:08;;;;;;;32.35;19.08;;;5.10;99.90;;;;;;4933705;29;20039;-76
2021/12/26 10:57:35;;;;;;;27.85;17.73;;;5.10;99.90;;;;;;4935029;29;20035;-75
2021/12/26 11:00:11;;;;;;;30.10;18.67;;;5.10;99.90;;;;;;4934763;29;20110;-78
2021/12/26 11:02:40;;;;;;;32.60;18.50;;;5.10;99.90;;;;;;4938154;29;20032;-77
2021/12/26 11:05:28;;;;;;;33.75;18.73;;;5.10;99.90;;;;;;4937961;29;20110;-71
2021/12/26 11:08:01;;;;;;;30.67;18.88;;;5.10;99.90;;;;;;4938215;29;20040;-70
2021/12/26 11:10:52;;;;;;;32.58;19.48;;;5.00;99.90;;;;;;4938171;29;20036;-78
2021/12/26 11:13:29;;;;;;;29.20;18.75;;;4.90;99.90;;;;;;4938023;29;20043;-71
2021/12/26 11:15:58;;;;;;;30.75;19.90;;;4.90;99.90;;;;;;4937794;29;20035;-79
2021/12/26 11:18:25;;;;;;;36.83;19.95;;;5.00;99.90;;;;;;4938051;29;20030;-71
2021/12/26 11:21:01;;;;;;;34.70;20.70;;;4.90;99.90;;;;;;4938318;29;20032;-78
2021/12/26 11:23:30;;;;;;;41.30;23.67;;;4.80;99.90;;;;;;4938220;29;20023;-70
2021/12/26 11:26:01;;;;;;;35.45;23.48;;;4.80;99.90;;;;;;4937574;29;20030;-78
2021/12/26 11:28:32;;;;;;;39.30;23.52;;;4.80;99.90;;;;;;4937392;29;20031;-78
2021/12/26 11:31:02;;;;;;;36.33;22.38;;;4.80;99.90;;;;;;4937510;29;20398;-75
2021/12/26 11:33:28;;;;;;;35.78;22.35;;;4.70;99.90;;;;;;4937643;29;20149;-76
2021/12/26 11:35:56;;;;;;;42.30;26.17;;;4.80;99.90;;;;;;4936933;29;20066;-78
2021/12/26 11:38:24;;;;;;;39.25;24.80;;;4.80;99.90;;;;;;4937073;29;20035;-79
2021/12/26 11:41:39;;;;;;;34.58;21.70;;;4.80;99.90;;;;;;4937624;29;20043;-78
2021/12/26 11:44:51;;;;;;;31.13;19.90;;;4.80;99.90;;;;;;4937837;29;20481;-79
2021/12/26 11:47:59;;;;;;;37.05;22.33;;;4.90;99.90;;;;;;4937257;29;20062;-78
2021/12/26 11:51:21;;;;;;;37.63;20.80;;;4.90;99.90;;;;;;4953807;29;20137;-77
2021/12/26 11:54:08;;;;;;;36.15;19.75;;;4.90;99.90;;;;;;4953333;29;20104;-79
2021/12/26 11:56:57;;;;;;;36.13;21.15;;;4.80;99.90;;;;;;4936723;29;20572;-79
2021/12/26 11:59:57;;;;;;;38.78;22.70;;;4.90;99.90;;;;;;4937031;29;20035;-78
2021/12/26 12:02:43;;;;;;;39.03;24.17;;;5.00;99.90;;;;;;4953227;29;20062;-78
2021/12/26 12:05:13;;;;;;;40.30;22.85;;;5.10;99.90;;;;;;4953134;29;20105;-73
2021/12/26 12:07:54;;;;;;;41.85;24.60;;;5.20;99.90;;;;;;4950977;29;20649;-69
2021/12/26 12:10:37;;;;;;;37.05;24.90;;;5.20;99.90;;;;;;4950323;29;20171;-72
2021/12/26 12:13:05;;;;;;;38.55;24.23;;;5.20;99.90;;;;;;4951330;28;20125;-71
2021/12/26 12:16:00;;;;;;;40.25;24.33;;;5.00;99.90;;;;;;4952371;29;20455;-79
2021/12/26 12:18:30;;;;;;;43.17;24.98;;;4.90;99.90;;;;;;4952380;29;20114;-79
2021/12/26 12:21:17;;;;;;;46.80;30.60;;;5.10;99.90;;;;;;4950489;29;20038;-78
2021/12/26 12:24:02;;;;;;;49.80;33.03;;;5.10;99.90;;;;;;4936041;29;20126;-79
2021/12/26 12:26:51;;;;;;;41.92;24.95;;;5.10;99.90;;;;;;4935893;29;20023;-75
2021/12/26 12:29:29;;;;;;;37.13;20.10;;;5.00;99.90;;;;;;4936059;29;20039;-77
2021/12/26 12:32:07;;;;;;;36.10;22.65;;;4.70;99.90;;;;;;4934567;29;20068;-73
2021/12/26 12:35:14;;;;;;;35.65;22.85;;;4.80;99.90;;;;;;4935965;29;20059;-79
2021/12/26 12:37:46;;;;;;;41.00;22.00;;;4.90;99.90;;;;;;4935902;29;20115;-77
2021/12/26 12:40:32;;;;;;;37.17;21.77;;;4.80;99.90;;;;;;4935735;29;20036;-75
2021/12/26 12:43:09;;;;;;;39.58;26.05;;;4.70;99.90;;;;;;4935659;29;20042;-73
2021/12/26 12:45:54;;;;;;;41.45;24.75;;;4.50;99.90;;;;;;4949374;29;20058;-73
2021/12/26 12:48:40;;;;;;;40.95;24.65;;;4.50;99.90;;;;;;4935599;29;20032;-71
2021/12/26 12:51:16;;;;;;;45.67;27.20;;;4.60;99.90;;;;;;4935563;29;20051;-73
2021/12/26 12:53:47;;;;;;;45.10;25.83;;;4.60;99.90;;;;;;4935617;29;20114;-78
2021/12/26 12:56:34;;;;;;;44.60;28.40;;;4.70;99.90;;;;;;4934532;29;20036;-71
2021/12/26 12:59:16;;;;;;;44.25;27.25;;;4.70;99.90;;;;;;4952713;29;20030;-75
2021/12/26 13:01:47;;;;;;;41.03;25.90;;;4.80;99.90;;;;;;4933656;29;20043;-78
2021/12/26 13:04:19;;;;;;;41.78;24.48;;;4.70;99.90;;;;;;4947828;28;20389;-78